createdAt,value
2019-04-04T00:00:43.281Z,0.50
2019-04-04T00:03:12.481Z,0.72
2019-04-04T00:05:40.640Z,1.05
2019-04-04T00:08:08.725Z,0.60
2019-04-04T00:10:36.883Z,0.70
2019-04-04T00:13:04.994Z,0.65
2019-04-04T00:15:33.458Z,1.02
2019-04-04T00:18:01.552Z,1.20
2019-04-04T00:20:36.904Z,0.90
2019-04-04T00:23:12.028Z,0.90
2019-04-04T00:26:13.904Z,0.80
2019-04-04T00:28:56.884Z,0.57
2019-04-04T00:31:31.186Z,0.70
2019-04-04T00:34:06.048Z,0.50
2019-04-04T00:36:48.510Z,0.60
2019-04-04T00:39:27.558Z,0.50
2019-04-04T00:42:07.329Z,0.57
2019-04-04T00:44:48.267Z,0.50
2019-04-04T00:50:00.005Z,0.80
2019-04-04T00:52:30.360Z,0.70
2019-04-04T00:55:05.103Z,0.60
2019-04-04T00:57:43.139Z,0.40
2019-04-04T01:00:14.169Z,0.50
2019-04-04T01:02:42.238Z,0.45
2019-04-04T01:05:10.677Z,0.50
2019-04-04T01:07:38.824Z,0.70
2019-04-04T01:10:08.085Z,0.70
2019-04-04T01:12:37.598Z,0.62
2019-04-04T01:15:06.553Z,0.50
2019-04-04T01:17:35.051Z,0.37
2019-04-04T01:20:05.415Z,0.57
2019-04-04T01:22:33.539Z,0.45
2019-04-04T01:25:01.671Z,0.47
2019-04-04T01:27:29.858Z,0.60
2019-04-04T01:29:57.999Z,0.80
2019-04-04T01:32:26.072Z,0.70
2019-04-04T01:34:54.146Z,1.10
2019-04-04T01:37:22.294Z,0.90
2019-04-04T01:39:50.532Z,0.68
2019-04-04T01:42:18.696Z,0.60
2019-04-04T01:44:46.891Z,0.80
2019-04-04T01:47:16.795Z,0.90
2019-04-04T01:49:44.944Z,0.60
2019-04-04T01:52:13.152Z,0.53
2019-04-04T01:54:41.353Z,0.50
2019-04-04T01:57:09.427Z,0.90
2019-04-04T01:59:37.485Z,1.00
2019-04-04T02:02:05.833Z,0.90
2019-04-04T02:04:34.209Z,1.20
2019-04-04T02:07:02.343Z,0.90
2019-04-04T02:09:32.039Z,1.00
2019-04-04T02:12:00.289Z,1.00
2019-04-04T02:14:28.677Z,0.88
2019-04-04T02:17:11.550Z,0.70
2019-04-04T02:19:40.266Z,1.00
2019-04-04T02:22:08.877Z,0.72
2019-04-04T02:24:37.397Z,0.70
2019-04-04T02:27:06.926Z,1.00
2019-04-04T02:29:35.487Z,0.80
2019-04-04T02:32:05.397Z,0.70
2019-04-04T02:34:37.505Z,0.60
2019-04-04T02:37:03.395Z,0.50
2019-04-04T02:39:32.695Z,0.60
2019-04-04T02:42:01.351Z,0.90
2019-04-04T02:44:31.892Z,0.75
2019-04-04T02:46:59.306Z,0.80
2019-04-04T02:49:29.180Z,1.00
2019-04-04T02:51:57.189Z,0.70
2019-04-04T02:54:25.787Z,0.72
2019-04-04T02:56:54.116Z,0.50
2019-04-04T02:59:22.277Z,0.80
2019-04-04T03:01:50.600Z,0.70
2019-04-04T03:04:18.741Z,0.95
2019-04-04T03:06:48.413Z,1.15
2019-04-04T03:09:16.593Z,0.80
2019-04-04T03:11:44.787Z,1.10
2019-04-04T03:14:12.981Z,1.30
2019-04-04T03:16:41.222Z,1.45
2019-04-04T03:19:11.080Z,1.00
2019-04-04T03:21:39.142Z,0.90
2019-04-04T03:24:07.411Z,1.00
2019-04-04T03:26:35.571Z,0.80
2019-04-04T03:29:05.487Z,0.68
2019-04-04T03:31:37.532Z,0.70
2019-04-04T03:34:08.697Z,0.68
2019-04-04T03:36:33.983Z,0.80
2019-04-04T03:39:02.240Z,0.70
2019-04-04T03:41:35.493Z,0.70
2019-04-04T03:44:00.219Z,0.70
2019-04-04T03:46:32.982Z,0.78
2019-04-04T03:48:58.129Z,0.60
2019-04-04T03:51:26.305Z,0.70
2019-04-04T03:53:56.030Z,0.70
2019-04-04T03:56:24.210Z,0.80
2019-04-04T03:58:52.362Z,1.00
2019-04-04T04:01:20.431Z,0.68
2019-04-04T04:03:48.507Z,0.90
2019-04-04T04:06:16.590Z,1.17
2019-04-04T04:08:45.228Z,0.75
2019-04-04T04:11:13.420Z,0.90
2019-04-04T04:13:41.627Z,0.70
2019-04-04T04:16:09.714Z,0.80
2019-04-04T04:18:37.842Z,0.75
2019-04-04T04:21:09.796Z,0.68
2019-04-04T04:23:39.726Z,0.80
2019-04-04T04:26:09.496Z,0.70
2019-04-04T04:28:37.580Z,0.70
2019-04-04T04:31:05.675Z,0.60
2019-04-04T04:33:33.740Z,0.68
2019-04-04T04:36:02.253Z,0.70
2019-04-04T04:38:30.492Z,1.00
2019-04-04T04:40:58.773Z,1.00
2019-04-04T04:43:26.861Z,0.98
2019-04-04T04:45:55.027Z,1.30
2019-04-04T04:48:25.941Z,1.50
2019-04-04T04:50:52.942Z,1.07
2019-04-04T04:53:21.398Z,1.10
2019-04-04T04:55:51.094Z,1.40
2019-04-04T04:58:19.235Z,1.77
2019-04-04T05:00:47.932Z,1.60
2019-04-04T05:03:16.609Z,1.17
2019-04-04T05:05:44.673Z,1.35
2019-04-04T05:08:12.734Z,1.07
2019-04-04T05:10:41.133Z,1.00
2019-04-04T05:13:09.209Z,1.15
2019-04-04T05:15:37.275Z,1.10
2019-04-04T05:18:05.401Z,1.07
2019-04-04T05:20:33.550Z,1.00
2019-04-04T05:23:01.644Z,1.12
2019-04-04T05:25:31.285Z,1.10
2019-04-04T05:28:00.058Z,0.90
2019-04-04T05:30:28.196Z,0.82
2019-04-04T05:32:56.703Z,1.05
2019-04-04T05:35:25.883Z,1.20
2019-04-04T05:37:53.988Z,1.05
2019-04-04T05:40:23.558Z,1.30
2019-04-04T05:42:53.820Z,1.10
2019-04-04T05:45:23.017Z,1.10
2019-04-04T05:47:55.136Z,1.00
2019-04-04T05:50:20.940Z,0.70
2019-04-04T05:52:49.026Z,0.80
2019-04-04T05:55:17.162Z,0.90
2019-04-04T05:57:45.387Z,1.00
2019-04-04T06:00:14.503Z,0.93
2019-04-04T06:02:43.293Z,0.88
2019-04-04T06:05:13.089Z,0.90
2019-04-04T06:07:41.976Z,0.82
2019-04-04T06:10:12.029Z,0.70
2019-04-04T06:12:42.623Z,0.60
2019-04-04T06:15:11.743Z,0.82
2019-04-04T06:17:40.087Z,0.80
2019-04-04T06:20:09.470Z,0.72
2019-04-04T06:22:37.537Z,0.80
2019-04-04T06:25:06.072Z,1.10
2019-04-04T06:27:34.174Z,0.78
2019-04-04T06:30:02.328Z,0.78
2019-04-04T06:32:31.052Z,0.90
2019-04-04T06:34:59.780Z,0.53
2019-04-04T06:37:27.894Z,0.80
2019-04-04T06:39:58.436Z,0.90
2019-04-04T06:42:25.855Z,0.72
2019-04-04T06:44:54.343Z,0.62
2019-04-04T06:47:23.182Z,0.62
2019-04-04T06:49:54.116Z,0.93
2019-04-04T06:52:23.506Z,0.95
2019-04-04T06:54:51.967Z,0.75
2019-04-04T06:57:21.447Z,0.70
2019-04-04T06:59:51.365Z,0.78
2019-04-04T07:02:21.991Z,0.50
2019-04-04T07:04:49.956Z,0.70
2019-04-04T07:07:18.089Z,0.80
2019-04-04T07:09:50.106Z,0.62
2019-04-04T07:12:24.436Z,0.70
2019-04-04T07:14:49.623Z,1.50
2019-04-04T07:17:17.805Z,1.32
2019-04-04T07:19:46.759Z,1.10
2019-04-04T07:22:15.189Z,1.30
2019-04-04T07:24:43.497Z,1.32
2019-04-04T07:27:16.318Z,0.80
2019-04-04T07:29:45.634Z,1.10
2019-04-04T07:32:13.819Z,0.90
2019-04-04T07:34:45.096Z,0.90
2019-04-04T07:37:11.890Z,0.98
2019-04-04T07:39:49.989Z,1.20
2019-04-04T07:42:22.899Z,1.07
2019-04-04T07:44:51.034Z,0.95
2019-04-04T07:47:19.191Z,0.80
2019-04-04T07:49:47.288Z,0.90
2019-04-04T07:52:17.183Z,0.70
2019-04-04T07:54:45.188Z,1.10
2019-04-04T07:57:13.361Z,0.82
2019-04-04T07:59:41.561Z,1.00
2019-04-04T08:02:10.156Z,1.12
2019-04-04T08:04:38.407Z,1.15
2019-04-04T08:07:06.653Z,0.88
2019-04-04T08:09:34.823Z,1.10
2019-04-04T08:12:02.885Z,1.25
2019-04-04T08:14:30.985Z,1.15
2019-04-04T08:16:59.246Z,1.07
2019-04-04T08:19:27.442Z,1.27
2019-04-04T08:21:55.578Z,1.00
2019-04-04T08:24:23.695Z,1.22
2019-04-04T08:26:51.748Z,1.70
2019-04-04T08:29:19.968Z,1.20
2019-04-04T08:31:48.196Z,1.20
2019-04-04T08:34:18.053Z,1.62
2019-04-04T08:36:46.321Z,1.42
2019-04-04T08:39:16.100Z,1.15
2019-04-04T08:41:45.128Z,1.07
2019-04-04T08:44:13.265Z,1.10
2019-04-04T08:46:41.351Z,1.12
2019-04-04T08:49:09.505Z,1.27
2019-04-04T08:51:37.858Z,1.37
2019-04-04T08:54:05.998Z,1.00
2019-04-04T08:56:34.175Z,1.07
2019-04-04T08:59:02.405Z,1.62
2019-04-04T09:01:30.500Z,1.60
2019-04-04T09:03:58.600Z,1.57
2019-04-04T09:06:26.922Z,1.35
2019-04-04T09:08:56.217Z,2.30
2019-04-04T09:11:24.402Z,1.62
2019-04-04T09:13:52.539Z,2.12
2019-04-04T09:16:22.297Z,1.72
2019-04-04T09:18:50.464Z,1.77
2019-04-04T09:21:18.651Z,2.12
2019-04-04T09:23:47.053Z,1.98
2019-04-04T09:26:15.365Z,1.65
2019-04-04T09:28:44.605Z,1.60
2019-04-04T09:31:13.035Z,2.02
2019-04-04T09:33:42.712Z,1.50
2019-04-04T09:36:11.407Z,1.15
2019-04-04T09:38:39.658Z,1.98
2019-04-04T09:41:07.906Z,2.00
2019-04-04T09:43:36.063Z,1.70
2019-04-04T09:46:04.266Z,1.80
2019-04-04T09:48:33.750Z,1.50
2019-04-04T09:51:02.345Z,1.75
2019-04-04T09:53:30.609Z,1.50
2019-04-04T09:55:58.745Z,1.30
2019-04-04T09:58:28.227Z,1.00
2019-04-04T10:00:56.363Z,1.20
2019-04-04T10:03:24.438Z,1.27
2019-04-04T10:05:53.133Z,1.02
2019-04-04T10:08:21.681Z,2.15
2019-04-04T10:10:49.899Z,1.60
2019-04-04T10:13:18.053Z,2.00
2019-04-04T10:15:46.201Z,2.10
2019-04-04T10:18:14.309Z,1.62
2019-04-04T10:20:42.451Z,1.60
2019-04-04T10:23:12.986Z,1.62
2019-04-04T10:25:40.764Z,1.70
2019-04-04T10:28:08.845Z,1.37
2019-04-04T10:30:37.262Z,1.37
2019-04-04T10:33:05.502Z,1.22
2019-04-04T10:35:33.662Z,1.62
2019-04-04T10:38:01.743Z,1.60
2019-04-04T10:40:29.881Z,1.75
2019-04-04T10:42:58.030Z,1.30
2019-04-04T10:45:26.260Z,1.62
2019-04-04T10:47:54.394Z,1.42
2019-04-04T10:50:22.781Z,1.70
2019-04-04T10:52:50.895Z,2.33
2019-04-04T10:55:19.532Z,1.70
2019-04-04T10:57:47.661Z,1.72
2019-04-04T11:00:16.102Z,1.65
2019-04-04T11:02:44.364Z,1.70
2019-04-04T11:05:12.776Z,1.60
2019-04-04T11:07:40.920Z,1.50
2019-04-04T11:10:09.077Z,2.15
2019-04-04T11:12:38.288Z,2.15
2019-04-04T11:15:06.830Z,1.62
2019-04-04T11:17:34.948Z,1.82
2019-04-04T11:20:03.591Z,1.50
2019-04-04T11:22:32.018Z,3.17
2019-04-04T11:25:00.129Z,1.80
2019-04-04T11:27:28.279Z,3.27
2019-04-04T11:29:56.458Z,2.05
2019-04-04T11:32:24.938Z,2.37
2019-04-04T11:34:53.718Z,2.87
2019-04-04T11:37:22.062Z,2.50
2019-04-04T11:39:54.969Z,1.80
2019-04-04T11:42:21.485Z,2.47
2019-04-04T11:44:49.619Z,1.80
2019-04-04T11:47:17.716Z,1.80
2019-04-04T11:49:45.887Z,2.45
2019-04-04T11:52:14.101Z,2.33
2019-04-04T11:54:58.357Z,2.80
2019-04-04T11:57:26.491Z,2.08
2019-04-04T11:59:54.652Z,1.50
2019-04-04T12:02:23.404Z,1.67
2019-04-04T12:04:51.555Z,1.30
2019-04-04T12:07:19.618Z,1.80
2019-04-04T12:09:47.730Z,1.30
2019-04-04T12:12:15.823Z,1.30
2019-04-04T12:14:45.368Z,1.40
2019-04-04T12:17:13.479Z,1.98
2019-04-04T12:19:41.622Z,1.65
2019-04-04T12:22:11.769Z,1.50
2019-04-04T12:24:39.538Z,1.47
2019-04-04T12:27:07.658Z,1.40
2019-04-04T12:29:35.821Z,1.65
2019-04-04T12:32:10.051Z,1.57
2019-04-04T12:34:39.276Z,2.33
2019-04-04T12:37:07.352Z,2.42
2019-04-04T12:39:35.512Z,1.98
2019-04-04T12:42:05.204Z,1.90
2019-04-04T12:44:33.844Z,2.10
2019-04-04T12:47:02.186Z,1.82
2019-04-04T12:49:30.262Z,1.62
2019-04-04T12:51:58.330Z,1.40
2019-04-04T12:54:26.541Z,1.40
2019-04-04T12:56:54.651Z,1.35
2019-04-04T12:59:22.799Z,1.85
2019-04-04T13:01:51.743Z,1.50
2019-04-04T13:04:30.675Z,1.32
2019-04-04T13:06:49.715Z,1.40
2019-04-04T13:09:17.953Z,1.50
2019-04-04T13:11:46.181Z,1.80
2019-04-04T13:14:21.979Z,1.67
2019-04-04T13:16:50.374Z,1.30
2019-04-04T13:19:20.549Z,1.60
2019-04-04T13:21:48.648Z,1.37
2019-04-04T13:24:16.862Z,1.10
2019-04-04T13:26:46.863Z,1.20
2019-04-04T13:29:15.184Z,1.27
2019-04-04T13:31:43.276Z,1.27
2019-04-04T13:34:11.385Z,1.55
2019-04-04T13:36:39.455Z,2.10
2019-04-04T13:39:09.151Z,2.15
2019-04-04T13:41:37.444Z,1.52
2019-04-04T13:44:05.611Z,1.40
2019-04-04T13:46:33.691Z,1.80
2019-04-04T13:49:01.834Z,1.82
2019-04-04T13:51:29.902Z,1.62
2019-04-04T13:53:57.961Z,2.08
2019-04-04T13:56:26.036Z,1.30
2019-04-04T13:58:56.885Z,1.20
2019-04-04T14:01:25.533Z,1.57
2019-04-04T14:03:53.751Z,1.45
2019-04-04T14:06:21.880Z,2.00
2019-04-04T14:08:50.035Z,1.90
2019-04-04T14:11:18.169Z,2.10
2019-04-04T14:13:48.777Z,1.65
2019-04-04T14:16:16.087Z,1.50
2019-04-04T14:18:44.770Z,1.80
2019-04-04T14:21:13.423Z,1.12
2019-04-04T14:23:41.552Z,1.57
2019-04-04T14:26:09.650Z,1.40
2019-04-04T14:28:37.828Z,1.57
2019-04-04T14:31:05.956Z,1.60
2019-04-04T14:33:34.134Z,1.20
2019-04-04T14:36:02.281Z,1.22
2019-04-04T14:38:30.404Z,1.05
2019-04-04T14:41:10.608Z,1.45
2019-04-04T14:43:30.034Z,1.13
2019-04-04T14:45:58.626Z,0.78
2019-04-04T14:48:26.767Z,1.10
2019-04-04T14:50:54.942Z,1.10
2019-04-04T14:53:25.989Z,1.10
2019-04-04T14:55:53.962Z,1.83
2019-04-04T14:58:22.182Z,1.65
2019-04-04T15:00:50.750Z,1.15
2019-04-04T15:03:18.848Z,1.50
2019-04-04T15:05:46.974Z,1.40
2019-04-04T15:08:15.067Z,1.40
2019-04-04T15:10:44.269Z,1.27
2019-04-04T15:13:12.548Z,1.50
2019-04-04T15:15:42.213Z,1.17
2019-04-04T15:18:10.344Z,1.50
2019-04-04T15:20:38.513Z,1.30
2019-04-04T15:23:07.792Z,1.10
2019-04-04T15:25:35.936Z,1.00
2019-04-04T15:28:04.133Z,1.22
2019-04-04T15:30:32.219Z,1.40
2019-04-04T15:33:02.603Z,1.40
2019-04-04T15:35:30.227Z,1.20
2019-04-04T15:37:58.330Z,1.00
2019-04-04T15:40:26.505Z,1.45
2019-04-04T15:42:54.621Z,1.00
2019-04-04T15:45:22.743Z,1.10
2019-04-04T15:47:50.903Z,1.10
2019-04-04T15:50:19.039Z,0.93
2019-04-04T15:52:47.792Z,0.72
2019-04-04T15:55:15.923Z,1.05
2019-04-04T15:57:44.070Z,0.85
2019-04-04T16:00:13.282Z,1.52
2019-04-04T16:02:41.389Z,1.25
2019-04-04T16:05:09.545Z,1.17
2019-04-04T16:07:37.938Z,1.17
2019-04-04T16:10:06.521Z,1.25
2019-04-04T16:12:34.677Z,0.93
2019-04-04T16:15:03.059Z,1.10
2019-04-04T16:17:32.423Z,1.00
2019-04-04T16:20:00.533Z,0.90
2019-04-04T16:22:28.597Z,1.30
2019-04-04T16:24:57.177Z,0.98
2019-04-04T16:27:26.358Z,1.07
2019-04-04T16:29:54.488Z,1.20
2019-04-04T16:32:22.606Z,1.37
2019-04-04T16:34:52.518Z,1.80
2019-04-04T16:37:20.434Z,1.60
2019-04-04T16:39:48.511Z,1.70
2019-04-04T16:42:16.577Z,2.65
2019-04-04T16:44:44.678Z,2.17
2019-04-04T16:47:12.770Z,2.05
2019-04-04T16:49:40.920Z,2.12
2019-04-04T16:52:09.058Z,1.90
2019-04-04T16:54:37.349Z,2.37
2019-04-04T16:57:05.584Z,1.70
2019-04-04T16:59:33.789Z,2.00
2019-04-04T17:02:01.862Z,2.30
2019-04-04T17:04:30.016Z,2.50
2019-04-04T17:06:58.270Z,2.17
2019-04-04T17:09:26.366Z,2.90
2019-04-04T17:11:54.430Z,3.70
2019-04-04T17:14:22.519Z,3.22
2019-04-04T17:16:50.743Z,3.77
2019-04-04T17:19:18.863Z,4.30
2019-04-04T17:21:47.016Z,4.30
2019-04-04T17:24:15.505Z,4.03
2019-04-04T17:26:43.669Z,3.17
2019-04-04T17:29:11.903Z,2.92
2019-04-04T17:31:40.108Z,2.80
2019-04-04T17:34:08.682Z,2.75
2019-04-04T17:36:36.937Z,2.40
2019-04-04T17:39:06.786Z,2.50
2019-04-04T17:41:35.080Z,2.47
2019-04-04T17:44:03.323Z,3.10
2019-04-04T17:46:31.413Z,2.87
2019-04-04T17:48:59.839Z,3.20
2019-04-04T17:51:28.338Z,3.37
2019-04-04T17:53:56.870Z,4.40
2019-04-04T17:56:25.060Z,3.25
2019-04-04T17:58:53.311Z,2.27
2019-04-04T18:01:21.499Z,2.05
2019-04-04T18:03:49.709Z,1.90
2019-04-04T18:06:17.857Z,1.92
2019-04-04T18:08:46.135Z,2.10
2019-04-04T18:11:14.334Z,1.87
2019-04-04T18:13:42.483Z,1.42
2019-04-04T18:16:10.678Z,2.05
2019-04-04T18:18:38.832Z,2.00
2019-04-04T18:21:06.946Z,1.60
2019-04-04T18:23:35.346Z,1.42
2019-04-04T18:26:03.736Z,1.65
2019-04-04T18:28:31.887Z,1.62
2019-04-04T18:31:00.519Z,1.55
2019-04-04T18:33:29.065Z,2.08
2019-04-04T18:35:57.231Z,1.80
2019-04-04T18:38:25.427Z,1.00
2019-04-04T18:40:53.691Z,1.40
2019-04-04T18:43:24.126Z,1.60
2019-04-04T18:45:53.411Z,1.67
2019-04-04T18:48:22.907Z,2.00
2019-04-04T18:50:53.942Z,2.20
2019-04-04T18:53:26.304Z,1.72
2019-04-04T18:55:57.930Z,1.80
2019-04-04T18:58:26.199Z,1.62
2019-04-04T19:00:54.837Z,1.70
2019-04-04T19:03:25.140Z,1.42
2019-04-04T19:05:54.477Z,1.17
2019-04-04T19:08:24.162Z,1.20
2019-04-04T19:10:53.351Z,1.20
2019-04-04T19:13:22.563Z,1.65
2019-04-04T19:15:51.310Z,1.35
2019-04-04T19:18:19.521Z,1.95
2019-04-04T19:20:48.328Z,1.72
2019-04-04T19:23:17.001Z,2.37
2019-04-04T19:25:45.338Z,1.85
2019-04-04T19:28:13.633Z,1.98
2019-04-04T19:30:42.008Z,2.17
2019-04-04T19:33:10.485Z,2.83
2019-04-04T19:35:38.909Z,2.62
2019-04-04T19:38:07.168Z,2.40
2019-04-04T19:40:35.304Z,2.00
2019-04-04T19:43:04.013Z,3.52
2019-04-04T19:45:35.051Z,4.12
2019-04-04T19:48:03.457Z,3.17
2019-04-04T19:50:31.753Z,3.72
2019-04-04T19:53:00.060Z,3.05
2019-04-04T19:55:28.651Z,2.72
2019-04-04T19:57:57.235Z,2.83
2019-04-04T20:00:25.664Z,1.95
2019-04-04T20:02:54.314Z,2.90
2019-04-04T20:05:23.031Z,3.10
2019-04-04T20:07:51.178Z,3.58
2019-04-04T20:10:19.330Z,2.85
2019-04-04T20:12:47.929Z,3.40
2019-04-04T20:15:17.415Z,3.15
2019-04-04T20:17:47.417Z,2.87
2019-04-04T20:20:16.019Z,2.80
2019-04-04T20:22:46.187Z,2.33
2019-04-04T20:25:15.799Z,2.80
2019-04-04T20:27:54.484Z,2.60
2019-04-04T20:30:15.489Z,3.08
2019-04-04T20:32:45.038Z,1.72
2019-04-04T20:35:16.229Z,2.10
2019-04-04T20:40:16.807Z,3.35
2019-04-04T20:42:45.842Z,2.52
2019-04-04T20:45:14.139Z,2.58
2019-04-04T20:47:42.221Z,3.67
2019-04-04T20:50:10.432Z,2.72
2019-04-04T20:52:38.515Z,2.92
2019-04-04T20:55:06.778Z,2.40
2019-04-04T20:57:34.934Z,1.77
2019-04-04T21:00:03.669Z,3.25
2019-04-04T21:02:33.533Z,2.83
2019-04-04T21:05:01.623Z,2.87
2019-04-04T21:07:29.851Z,2.10
2019-04-04T21:09:57.965Z,2.25
2019-04-04T21:12:26.110Z,2.15
2019-04-04T21:14:54.247Z,2.00
2019-04-04T21:17:22.474Z,1.98
2019-04-04T21:19:50.561Z,2.40
2019-04-04T21:22:27.555Z,2.00
2019-04-04T21:24:48.519Z,2.35
2019-04-04T21:27:18.814Z,2.40
2019-04-04T21:29:47.503Z,2.40
2019-04-04T21:32:15.677Z,1.70
2019-04-04T21:34:44.846Z,2.00
2019-04-04T21:37:14.761Z,1.70
2019-04-04T21:39:43.055Z,1.82
2019-04-04T21:42:11.121Z,1.90
2019-04-04T21:44:39.243Z,1.70
2019-04-04T21:47:07.309Z,2.08
2019-04-04T21:49:35.475Z,2.10
2019-04-04T21:52:03.769Z,1.80
2019-04-04T21:54:32.078Z,2.83
2019-04-04T21:57:00.230Z,2.87
2019-04-04T21:59:28.390Z,3.35
2019-04-04T22:01:56.572Z,3.40
2019-04-04T22:04:24.818Z,3.12
2019-04-04T22:06:52.905Z,2.20
2019-04-04T22:09:21.500Z,2.20
2019-04-04T22:11:49.671Z,2.00
2019-04-04T22:14:22.040Z,2.70
2019-04-04T22:16:47.657Z,2.27
2019-04-04T22:19:15.770Z,1.92
2019-04-04T22:21:43.974Z,2.85
2019-04-04T22:24:12.420Z,3.67
2019-04-04T22:26:41.353Z,2.72
2019-04-04T22:29:09.512Z,4.45
2019-04-04T22:31:37.697Z,4.22
2019-04-04T22:34:05.866Z,4.65
2019-04-04T22:36:34.042Z,4.00
2019-04-04T22:39:02.223Z,4.97
2019-04-04T22:41:32.917Z,5.33
2019-04-04T22:44:03.682Z,4.58
2019-04-04T22:46:31.494Z,3.17
2019-04-04T22:48:59.749Z,3.60
2019-04-04T22:51:27.911Z,4.42
2019-04-04T22:53:56.176Z,4.85
2019-04-04T22:56:24.273Z,3.90
2019-04-04T22:58:53.522Z,4.58
2019-04-04T23:01:21.636Z,4.65
2019-04-04T23:03:49.832Z,5.95
2019-04-04T23:06:18.059Z,6.40
2019-04-04T23:08:46.295Z,4.58
2019-04-04T23:11:14.466Z,6.37
2019-04-04T23:13:42.681Z,7.62
2019-04-04T23:16:10.919Z,7.15
2019-04-04T23:18:39.093Z,5.53
2019-04-04T23:21:07.371Z,7.53
2019-04-04T23:23:35.541Z,6.10
2019-04-04T23:26:07.638Z,5.58
2019-04-04T23:28:35.824Z,4.90
2019-04-04T23:31:03.993Z,4.35
2019-04-04T23:33:32.078Z,4.67
2019-04-04T23:36:00.930Z,4.65
2019-04-04T23:38:30.140Z,4.13
2019-04-04T23:40:59.417Z,5.20
2019-04-04T23:43:28.780Z,5.03
2019-04-04T23:45:57.199Z,3.70
2019-04-04T23:48:25.383Z,4.20
2019-04-04T23:50:53.594Z,3.62
2019-04-04T23:53:21.778Z,3.50
2019-04-04T23:55:49.963Z,2.58
2019-04-04T23:58:18.159Z,2.90
